Terminal Aerodrome Forecast
Issued by NWS Sioux Falls, SD

Home | Current Version | Previous Version | Text Only | Print | Product List | Glossary On
Versions: 1 2 3 4 5 6 7 8 9 10 11 12 13 14 15
000
FTUS43 KFSD 301129
TAFFSD
TAF
KFSD 301129Z 3012/3112 15005KT P6SM SCT090 BKN150
     FM301500 29008KT P6SM SCT050
     FM301700 33012KT P6SM BKN040
     FM301900 34018G28KT P6SM BKN030
     FM310100 01012KT P6SM SCT035=

USA.gov is the U.S. government's official web portal to all federal, state and local government web resources and services.